sensor_id;sensor_type;location;lat;lon;timestamp;P1;durP1;ratioP1;P2;durP2;ratioP2
53903;SDS011;39812;52.430;16.936;2023-05-21T00:00:48;22.35;;;15.20;;
53903;SDS011;39812;52.430;16.936;2023-05-21T00:03:15;21.63;;;14.98;;
53903;SDS011;39812;52.430;16.936;2023-05-21T00:05:44;26.40;;;15.90;;
53903;SDS011;39812;52.430;16.936;2023-05-21T00:08:11;24.98;;;16.42;;
53903;SDS011;39812;52.430;16.936;2023-05-21T00:10:36;24.80;;;16.15;;
53903;SDS011;39812;52.430;16.936;2023-05-21T00:13:02;22.30;;;15.68;;
53903;SDS011;39812;52.430;16.936;2023-05-21T00:15:27;21.38;;;15.55;;
53903;SDS011;39812;52.430;16.936;2023-05-21T00:17:53;22.38;;;15.35;;
53903;SDS011;39812;52.430;16.936;2023-05-21T00:20:19;22.67;;;15.40;;
53903;SDS011;39812;52.430;16.936;2023-05-21T00:22:44;22.05;;;15.40;;
53903;SDS011;39812;52.430;16.936;2023-05-21T00:25:10;24.88;;;16.17;;
53903;SDS011;39812;52.430;16.936;2023-05-21T00:27:36;21.15;;;15.05;;
53903;SDS011;39812;52.430;16.936;2023-05-21T00:30:02;25.00;;;16.77;;
53903;SDS011;39812;52.430;16.936;2023-05-21T00:32:28;22.42;;;16.05;;
53903;SDS011;39812;52.430;16.936;2023-05-21T00:34:54;21.48;;;14.75;;
53903;SDS011;39812;52.430;16.936;2023-05-21T00:37:20;23.95;;;16.20;;
53903;SDS011;39812;52.430;16.936;2023-05-21T00:39:46;22.33;;;16.63;;
53903;SDS011;39812;52.430;16.936;2023-05-21T00:42:11;24.15;;;16.63;;
53903;SDS011;39812;52.430;16.936;2023-05-21T00:44:42;21.45;;;16.35;;
53903;SDS011;39812;52.430;16.936;2023-05-21T00:47:09;22.52;;;15.25;;
53903;SDS011;39812;52.430;16.936;2023-05-21T00:49:36;22.05;;;16.70;;
53903;SDS011;39812;52.430;16.936;2023-05-21T00:52:02;24.48;;;17.60;;
53903;SDS011;39812;52.430;16.936;2023-05-21T00:54:28;25.95;;;16.88;;
53903;SDS011;39812;52.430;16.936;2023-05-21T00:56:54;21.58;;;15.32;;
53903;SDS011;39812;52.430;16.936;2023-05-21T00:59:20;25.38;;;16.75;;
53903;SDS011;39812;52.430;16.936;2023-05-21T01:01:47;23.98;;;17.17;;
53903;SDS011;39812;52.430;16.936;2023-05-21T01:04:19;22.17;;;16.50;;
53903;SDS011;39812;52.430;16.936;2023-05-21T01:06:46;24.25;;;16.85;;
53903;SDS011;39812;52.430;16.936;2023-05-21T01:09:12;22.63;;;15.95;;
53903;SDS011;39812;52.430;16.936;2023-05-21T01:14:05;24.77;;;16.88;;
53903;SDS011;39812;52.430;16.936;2023-05-21T01:16:34;25.40;;;16.75;;
53903;SDS011;39812;52.430;16.936;2023-05-21T01:19:01;25.85;;;15.63;;
53903;SDS011;39812;52.430;16.936;2023-05-21T01:21:29;26.77;;;17.55;;
53903;SDS011;39812;52.430;16.936;2023-05-21T01:23:59;25.17;;;17.15;;
53903;SDS011;39812;52.430;16.936;2023-05-21T01:26:26;22.30;;;17.00;;
53903;SDS011;39812;52.430;16.936;2023-05-21T01:28:52;26.40;;;17.77;;
53903;SDS011;39812;52.430;16.936;2023-05-21T01:31:29;25.20;;;17.30;;
53903;SDS011;39812;52.430;16.936;2023-05-21T01:34:01;25.55;;;16.48;;
53903;SDS011;39812;52.430;16.936;2023-05-21T01:36:33;27.58;;;17.42;;
53903;SDS011;39812;52.430;16.936;2023-05-21T01:42:02;23.13;;;15.88;;
53903;SDS011;39812;52.430;16.936;2023-05-21T01:44:32;23.85;;;15.52;;
53903;SDS011;39812;52.430;16.936;2023-05-21T01:46:59;22.92;;;17.27;;
53903;SDS011;39812;52.430;16.936;2023-05-21T01:49:27;25.92;;;18.00;;
53903;SDS011;39812;52.430;16.936;2023-05-21T01:51:53;28.70;;;18.50;;
53903;SDS011;39812;52.430;16.936;2023-05-21T01:54:19;25.00;;;17.50;;
53903;SDS011;39812;52.430;16.936;2023-05-21T01:56:46;27.48;;;17.83;;
53903;SDS011;39812;52.430;16.936;2023-05-21T01:59:11;26.02;;;18.05;;
53903;SDS011;39812;52.430;16.936;2023-05-21T02:01:37;25.88;;;17.77;;
53903;SDS011;39812;52.430;16.936;2023-05-21T02:04:03;23.63;;;17.60;;
53903;SDS011;39812;52.430;16.936;2023-05-21T02:06:28;25.15;;;18.30;;
53903;SDS011;39812;52.430;16.936;2023-05-21T02:08:55;26.92;;;18.35;;
53903;SDS011;39812;52.430;16.936;2023-05-21T02:11:21;24.58;;;17.25;;
53903;SDS011;39812;52.430;16.936;2023-05-21T02:13:47;28.25;;;19.00;;
53903;SDS011;39812;52.430;16.936;2023-05-21T02:16:13;26.20;;;19.00;;
53903;SDS011;39812;52.430;16.936;2023-05-21T02:18:40;28.55;;;18.98;;
53903;SDS011;39812;52.430;16.936;2023-05-21T02:21:10;26.52;;;18.92;;
53903;SDS011;39812;52.430;16.936;2023-05-21T02:23:36;27.95;;;18.35;;
53903;SDS011;39812;52.430;16.936;2023-05-21T02:26:02;27.70;;;18.85;;
53903;SDS011;39812;52.430;16.936;2023-05-21T02:28:28;31.52;;;18.13;;
53903;SDS011;39812;52.430;16.936;2023-05-21T02:30:54;25.13;;;18.10;;
53903;SDS011;39812;52.430;16.936;2023-05-21T02:33:20;24.70;;;17.38;;
53903;SDS011;39812;52.430;16.936;2023-05-21T02:35:46;24.50;;;17.15;;
53903;SDS011;39812;52.430;16.936;2023-05-21T02:38:12;23.60;;;18.02;;
53903;SDS011;39812;52.430;16.936;2023-05-21T02:40:38;26.58;;;18.08;;
53903;SDS011;39812;52.430;16.936;2023-05-21T02:43:04;24.75;;;17.20;;
53903;SDS011;39812;52.430;16.936;2023-05-21T02:45:30;23.90;;;16.80;;
53903;SDS011;39812;52.430;16.936;2023-05-21T02:47:56;25.58;;;18.90;;
53903;SDS011;39812;52.430;16.936;2023-05-21T02:50:22;28.60;;;19.25;;
53903;SDS011;39812;52.430;16.936;2023-05-21T02:52:48;29.70;;;19.55;;
53903;SDS011;39812;52.430;16.936;2023-05-21T02:55:13;29.80;;;19.27;;
53903;SDS011;39812;52.430;16.936;2023-05-21T02:57:39;28.23;;;19.73;;
53903;SDS011;39812;52.430;16.936;2023-05-21T03:00:05;34.22;;;20.80;;
53903;SDS011;39812;52.430;16.936;2023-05-21T03:02:32;25.38;;;17.83;;
53903;SDS011;39812;52.430;16.936;2023-05-21T03:04:58;29.35;;;20.17;;
53903;SDS011;39812;52.430;16.936;2023-05-21T03:07:24;31.77;;;21.13;;
53903;SDS011;39812;52.430;16.936;2023-05-21T03:09:50;31.83;;;19.83;;
53903;SDS011;39812;52.430;16.936;2023-05-21T03:12:16;27.88;;;19.48;;
53903;SDS011;39812;52.430;16.936;2023-05-21T03:14:42;28.65;;;20.73;;
53903;SDS011;39812;52.430;16.936;2023-05-21T03:17:08;30.13;;;20.92;;
53903;SDS011;39812;52.430;16.936;2023-05-21T03:19:37;28.33;;;19.38;;
53903;SDS011;39812;52.430;16.936;2023-05-21T03:22:04;30.20;;;20.13;;
53903;SDS011;39812;52.430;16.936;2023-05-21T03:24:30;27.25;;;18.15;;
53903;SDS011;39812;52.430;16.936;2023-05-21T03:26:57;31.45;;;19.30;;
53903;SDS011;39812;52.430;16.936;2023-05-21T03:29:25;29.77;;;18.92;;
53903;SDS011;39812;52.430;16.936;2023-05-21T03:31:51;25.38;;;18.67;;
53903;SDS011;39812;52.430;16.936;2023-05-21T03:34:18;29.20;;;17.65;;
53903;SDS011;39812;52.430;16.936;2023-05-21T03:36:44;27.92;;;18.20;;
53903;SDS011;39812;52.430;16.936;2023-05-21T03:39:10;30.05;;;19.70;;
53903;SDS011;39812;52.430;16.936;2023-05-21T03:41:36;24.20;;;17.63;;
53903;SDS011;39812;52.430;16.936;2023-05-21T03:44:01;26.05;;;17.08;;
53903;SDS011;39812;52.430;16.936;2023-05-21T03:46:27;26.05;;;16.92;;
53903;SDS011;39812;52.430;16.936;2023-05-21T03:48:53;25.30;;;16.45;;
53903;SDS011;39812;52.430;16.936;2023-05-21T03:51:18;24.88;;;16.95;;
53903;SDS011;39812;52.430;16.936;2023-05-21T03:53:44;19.63;;;14.77;;
53903;SDS011;39812;52.430;16.936;2023-05-21T03:56:10;22.85;;;15.32;;
53903;SDS011;39812;52.430;16.936;2023-05-21T03:58:36;19.40;;;14.43;;
53903;SDS011;39812;52.430;16.936;2023-05-21T04:01:02;20.83;;;14.30;;
53903;SDS011;39812;52.430;16.936;2023-05-21T04:03:28;22.65;;;13.82;;
53903;SDS011;39812;52.430;16.936;2023-05-21T04:05:56;23.17;;;14.98;;
53903;SDS011;39812;52.430;16.936;2023-05-21T04:08:21;22.17;;;13.63;;
53903;SDS011;39812;52.430;16.936;2023-05-21T04:10:47;19.25;;;13.35;;
53903;SDS011;39812;52.430;16.936;2023-05-21T04:13:13;19.10;;;12.90;;
53903;SDS011;39812;52.430;16.936;2023-05-21T04:15:38;23.33;;;12.30;;
53903;SDS011;39812;52.430;16.936;2023-05-21T04:18:04;16.35;;;11.93;;
53903;SDS011;39812;52.430;16.936;2023-05-21T04:20:31;19.40;;;12.40;;
53903;SDS011;39812;52.430;16.936;2023-05-21T04:22:56;15.80;;;11.82;;
53903;SDS011;39812;52.430;16.936;2023-05-21T04:25:22;17.60;;;10.70;;
53903;SDS011;39812;52.430;16.936;2023-05-21T04:27:47;20.60;;;11.55;;
53903;SDS011;39812;52.430;16.936;2023-05-21T04:30:14;15.52;;;10.80;;
53903;SDS011;39812;52.430;16.936;2023-05-21T04:32:39;17.30;;;11.38;;
53903;SDS011;39812;52.430;16.936;2023-05-21T04:35:05;16.05;;;11.60;;
53903;SDS011;39812;52.430;16.936;2023-05-21T04:37:31;16.98;;;10.43;;
53903;SDS011;39812;52.430;16.936;2023-05-21T04:39:59;16.95;;;10.45;;
53903;SDS011;39812;52.430;16.936;2023-05-21T04:42:28;15.88;;;10.38;;
53903;SDS011;39812;52.430;16.936;2023-05-21T04:44:54;12.65;;;9.35;;
53903;SDS011;39812;52.430;16.936;2023-05-21T04:47:20;13.15;;;9.45;;
53903;SDS011;39812;52.430;16.936;2023-05-21T04:49:45;12.85;;;9.23;;
53903;SDS011;39812;52.430;16.936;2023-05-21T04:52:11;16.35;;;10.27;;
53903;SDS011;39812;52.430;16.936;2023-05-21T04:54:37;12.63;;;8.93;;
53903;SDS011;39812;52.430;16.936;2023-05-21T04:57:05;12.15;;;8.52;;
53903;SDS011;39812;52.430;16.936;2023-05-21T04:59:31;11.73;;;8.70;;
53903;SDS011;39812;52.430;16.936;2023-05-21T05:01:57;10.68;;;7.60;;
53903;SDS011;39812;52.430;16.936;2023-05-21T05:04:23;11.95;;;8.30;;
53903;SDS011;39812;52.430;16.936;2023-05-21T05:06:49;12.02;;;7.72;;
53903;SDS011;39812;52.430;16.936;2023-05-21T05:09:15;10.50;;;7.30;;
53903;SDS011;39812;52.430;16.936;2023-05-21T05:11:41;11.73;;;8.10;;
53903;SDS011;39812;52.430;16.936;2023-05-21T05:14:06;12.38;;;8.20;;
53903;SDS011;39812;52.430;16.936;2023-05-21T05:16:32;10.00;;;7.30;;
53903;SDS011;39812;52.430;16.936;2023-05-21T05:18:59;10.70;;;7.93;;
53903;SDS011;39812;52.430;16.936;2023-05-21T05:21:25;10.30;;;7.25;;
53903;SDS011;39812;52.430;16.936;2023-05-21T05:23:50;11.30;;;7.63;;
53903;SDS011;39812;52.430;16.936;2023-05-21T05:26:16;9.63;;;7.32;;
53903;SDS011;39812;52.430;16.936;2023-05-21T05:28:42;9.52;;;7.07;;
53903;SDS011;39812;52.430;16.936;2023-05-21T05:31:08;10.45;;;6.80;;
53903;SDS011;39812;52.430;16.936;2023-05-21T05:33:33;8.73;;;6.85;;
53903;SDS011;39812;52.430;16.936;2023-05-21T05:35:59;8.88;;;6.82;;
53903;SDS011;39812;52.430;16.936;2023-05-21T05:38:24;10.57;;;6.50;;
53903;SDS011;39812;52.430;16.936;2023-05-21T05:40:51;12.90;;;7.18;;
53903;SDS011;39812;52.430;16.936;2023-05-21T05:43:16;9.45;;;6.43;;
53903;SDS011;39812;52.430;16.936;2023-05-21T05:45:42;9.18;;;6.78;;
53903;SDS011;39812;52.430;16.936;2023-05-21T05:48:07;9.50;;;6.03;;
53903;SDS011;39812;52.430;16.936;2023-05-21T05:50:33;8.98;;;5.85;;
53903;SDS011;39812;52.430;16.936;2023-05-21T05:52:59;7.13;;;5.65;;
53903;SDS011;39812;52.430;16.936;2023-05-21T05:55:24;8.65;;;5.68;;
53903;SDS011;39812;52.430;16.936;2023-05-21T05:57:50;9.77;;;6.20;;
53903;SDS011;39812;52.430;16.936;2023-05-21T06:00:16;9.57;;;5.75;;
53903;SDS011;39812;52.430;16.936;2023-05-21T06:02:42;10.50;;;5.55;;
53903;SDS011;39812;52.430;16.936;2023-05-21T06:05:08;9.73;;;6.07;;
53903;SDS011;39812;52.430;16.936;2023-05-21T06:07:38;7.93;;;5.15;;
53903;SDS011;39812;52.430;16.936;2023-05-21T06:10:05;8.43;;;5.85;;
53903;SDS011;39812;52.430;16.936;2023-05-21T06:12:31;8.82;;;5.72;;
53903;SDS011;39812;52.430;16.936;2023-05-21T06:14:56;9.45;;;5.75;;
53903;SDS011;39812;52.430;16.936;2023-05-21T06:17:22;7.43;;;5.30;;
53903;SDS011;39812;52.430;16.936;2023-05-21T06:19:48;7.93;;;4.95;;
53903;SDS011;39812;52.430;16.936;2023-05-21T06:22:13;8.63;;;5.53;;
53903;SDS011;39812;52.430;16.936;2023-05-21T06:24:39;10.70;;;5.28;;
53903;SDS011;39812;52.430;16.936;2023-05-21T06:27:05;6.30;;;4.35;;
53903;SDS011;39812;52.430;16.936;2023-05-21T06:29:30;7.60;;;4.45;;
53903;SDS011;39812;52.430;16.936;2023-05-21T06:31:56;8.05;;;4.60;;
53903;SDS011;39812;52.430;16.936;2023-05-21T06:34:22;6.70;;;4.35;;
53903;SDS011;39812;52.430;16.936;2023-05-21T06:36:48;7.15;;;4.78;;
53903;SDS011;39812;52.430;16.936;2023-05-21T06:39:13;7.60;;;5.60;;
53903;SDS011;39812;52.430;16.936;2023-05-21T06:41:39;8.68;;;3.97;;
53903;SDS011;39812;52.430;16.936;2023-05-21T06:44:04;5.80;;;4.28;;
53903;SDS011;39812;52.430;16.936;2023-05-21T06:46:30;10.05;;;4.55;;
53903;SDS011;39812;52.430;16.936;2023-05-21T06:48:56;7.50;;;4.57;;
53903;SDS011;39812;52.430;16.936;2023-05-21T06:51:22;7.38;;;4.45;;
53903;SDS011;39812;52.430;16.936;2023-05-21T06:53:47;8.15;;;4.20;;
53903;SDS011;39812;52.430;16.936;2023-05-21T06:56:13;7.60;;;3.75;;
53903;SDS011;39812;52.430;16.936;2023-05-21T06:58:39;9.40;;;3.72;;
53903;SDS011;39812;52.430;16.936;2023-05-21T07:01:04;5.18;;;3.83;;
53903;SDS011;39812;52.430;16.936;2023-05-21T07:03:30;5.20;;;4.13;;
53903;SDS011;39812;52.430;16.936;2023-05-21T07:05:56;9.60;;;4.05;;
53903;SDS011;39812;52.430;16.936;2023-05-21T07:08:22;5.57;;;3.83;;
53903;SDS011;39812;52.430;16.936;2023-05-21T07:10:48;8.20;;;3.67;;
53903;SDS011;39812;52.430;16.936;2023-05-21T07:13:14;6.45;;;3.92;;
53903;SDS011;39812;52.430;16.936;2023-05-21T07:15:40;6.13;;;3.40;;
53903;SDS011;39812;52.430;16.936;2023-05-21T07:18:05;9.80;;;3.83;;
53903;SDS011;39812;52.430;16.936;2023-05-21T07:20:31;6.38;;;3.65;;
53903;SDS011;39812;52.430;16.936;2023-05-21T07:22:57;5.00;;;3.60;;
53903;SDS011;39812;52.430;16.936;2023-05-21T07:25:22;7.10;;;3.40;;
53903;SDS011;39812;52.430;16.936;2023-05-21T07:27:48;7.38;;;3.85;;
53903;SDS011;39812;52.430;16.936;2023-05-21T07:30:14;6.13;;;3.38;;
53903;SDS011;39812;52.430;16.936;2023-05-21T07:32:40;6.85;;;3.50;;
53903;SDS011;39812;52.430;16.936;2023-05-21T07:35:06;5.50;;;3.70;;
53903;SDS011;39812;52.430;16.936;2023-05-21T07:37:32;6.65;;;3.60;;
53903;SDS011;39812;52.430;16.936;2023-05-21T07:39:57;5.15;;;3.40;;
53903;SDS011;39812;52.430;16.936;2023-05-21T07:42:23;4.85;;;3.25;;
53903;SDS011;39812;52.430;16.936;2023-05-21T07:44:49;7.32;;;3.45;;
53903;SDS011;39812;52.430;16.936;2023-05-21T07:47:15;6.53;;;3.30;;
53903;SDS011;39812;52.430;16.936;2023-05-21T07:49:41;4.45;;;3.03;;
53903;SDS011;39812;52.430;16.936;2023-05-21T07:52:06;3.83;;;3.03;;
53903;SDS011;39812;52.430;16.936;2023-05-21T07:54:32;10.10;;;3.17;;
53903;SDS011;39812;52.430;16.936;2023-05-21T07:56:58;8.27;;;3.35;;
53903;SDS011;39812;52.430;16.936;2023-05-21T07:59:25;4.40;;;2.85;;
53903;SDS011;39812;52.430;16.936;2023-05-21T08:01:51;6.15;;;3.38;;
53903;SDS011;39812;52.430;16.936;2023-05-21T08:04:16;8.75;;;3.28;;
53903;SDS011;39812;52.430;16.936;2023-05-21T08:06:42;3.90;;;2.63;;
53903;SDS011;39812;52.430;16.936;2023-05-21T08:09:08;9.48;;;3.55;;
53903;SDS011;39812;52.430;16.936;2023-05-21T08:11:34;6.13;;;3.00;;
53903;SDS011;39812;52.430;16.936;2023-05-21T08:13:59;5.20;;;2.85;;
53903;SDS011;39812;52.430;16.936;2023-05-21T08:16:25;5.70;;;2.65;;
53903;SDS011;39812;52.430;16.936;2023-05-21T08:18:50;7.40;;;3.15;;
53903;SDS011;39812;52.430;16.936;2023-05-21T08:21:16;4.20;;;2.28;;
53903;SDS011;39812;52.430;16.936;2023-05-21T08:23:42;3.40;;;2.50;;
53903;SDS011;39812;52.430;16.936;2023-05-21T08:26:08;5.85;;;2.42;;
53903;SDS011;39812;52.430;16.936;2023-05-21T08:28:37;4.60;;;2.40;;
53903;SDS011;39812;52.430;16.936;2023-05-21T08:31:03;4.60;;;2.75;;
53903;SDS011;39812;52.430;16.936;2023-05-21T08:33:29;10.25;;;3.05;;
53903;SDS011;39812;52.430;16.936;2023-05-21T08:35:54;5.65;;;2.50;;
53903;SDS011;39812;52.430;16.936;2023-05-21T08:38:20;4.25;;;2.50;;
53903;SDS011;39812;52.430;16.936;2023-05-21T08:40:45;6.07;;;2.50;;
53903;SDS011;39812;52.430;16.936;2023-05-21T08:43:14;4.30;;;2.33;;
53903;SDS011;39812;52.430;16.936;2023-05-21T08:45:41;3.35;;;2.17;;
53903;SDS011;39812;52.430;16.936;2023-05-21T08:48:09;6.47;;;2.13;;
53903;SDS011;39812;52.430;16.936;2023-05-21T08:50:37;4.50;;;2.05;;
53903;SDS011;39812;52.430;16.936;2023-05-21T08:53:04;4.80;;;2.47;;
53903;SDS011;39812;52.430;16.936;2023-05-21T08:55:29;6.05;;;2.50;;
53903;SDS011;39812;52.430;16.936;2023-05-21T08:57:56;4.20;;;2.33;;
53903;SDS011;39812;52.430;16.936;2023-05-21T09:00:22;5.72;;;2.38;;
53903;SDS011;39812;52.430;16.936;2023-05-21T09:02:48;7.97;;;2.45;;
53903;SDS011;39812;52.430;16.936;2023-05-21T09:05:18;3.30;;;2.25;;
53903;SDS011;39812;52.430;16.936;2023-05-21T09:10:32;4.68;;;2.88;;
53903;SDS011;39812;52.430;16.936;2023-05-21T09:13:01;5.97;;;2.92;;
53903;SDS011;39812;52.430;16.936;2023-05-21T09:15:27;4.65;;;2.00;;
53903;SDS011;39812;52.430;16.936;2023-05-21T09:17:53;7.53;;;2.25;;
53903;SDS011;39812;52.430;16.936;2023-05-21T09:20:23;4.35;;;2.20;;
53903;SDS011;39812;52.430;16.936;2023-05-21T09:22:52;9.95;;;2.20;;
53903;SDS011;39812;52.430;16.936;2023-05-21T09:25:22;2.83;;;2.20;;
53903;SDS011;39812;52.430;16.936;2023-05-21T09:27:52;5.93;;;2.30;;
53903;SDS011;39812;52.430;16.936;2023-05-21T09:30:19;4.28;;;2.55;;
53903;SDS011;39812;52.430;16.936;2023-05-21T09:32:45;5.28;;;2.20;;
53903;SDS011;39812;52.430;16.936;2023-05-21T09:35:23;6.70;;;2.47;;
53903;SDS011;39812;52.430;16.936;2023-05-21T09:37:50;6.57;;;2.78;;
53903;SDS011;39812;52.430;16.936;2023-05-21T09:40:17;5.55;;;2.60;;
53903;SDS011;39812;52.430;16.936;2023-05-21T09:45:19;4.18;;;2.22;;
53903;SDS011;39812;52.430;16.936;2023-05-21T09:47:46;3.75;;;2.35;;
53903;SDS011;39812;52.430;16.936;2023-05-21T09:50:13;3.97;;;2.33;;
53903;SDS011;39812;52.430;16.936;2023-05-21T09:52:46;3.35;;;2.17;;
53903;SDS011;39812;52.430;16.936;2023-05-21T09:55:16;4.88;;;2.70;;
53903;SDS011;39812;52.430;16.936;2023-05-21T09:57:44;4.15;;;2.38;;
53903;SDS011;39812;52.430;16.936;2023-05-21T10:00:23;2.55;;;2.00;;
53903;SDS011;39812;52.430;16.936;2023-05-21T10:02:55;5.50;;;2.63;;
53903;SDS011;39812;52.430;16.936;2023-05-21T10:05:25;4.03;;;2.90;;
53903;SDS011;39812;52.430;16.936;2023-05-21T10:07:52;5.95;;;2.35;;
53903;SDS011;39812;52.430;16.936;2023-05-21T10:10:27;4.63;;;2.60;;
53903;SDS011;39812;52.430;16.936;2023-05-21T10:12:56;3.95;;;2.20;;
53903;SDS011;39812;52.430;16.936;2023-05-21T10:15:24;6.07;;;2.20;;
53903;SDS011;39812;52.430;16.936;2023-05-21T10:17:53;7.00;;;2.10;;
53903;SDS011;39812;52.430;16.936;2023-05-21T10:20:20;5.47;;;2.55;;
53903;SDS011;39812;52.430;16.936;2023-05-21T10:22:46;7.53;;;2.58;;
53903;SDS011;39812;52.430;16.936;2023-05-21T10:25:14;4.47;;;2.40;;
53903;SDS011;39812;52.430;16.936;2023-05-21T10:27:40;4.43;;;2.38;;
53903;SDS011;39812;52.430;16.936;2023-05-21T10:30:06;3.80;;;2.50;;
53903;SDS011;39812;52.430;16.936;2023-05-21T10:32:33;3.25;;;2.17;;
53903;SDS011;39812;52.430;16.936;2023-05-21T10:34:59;7.18;;;2.28;;
53903;SDS011;39812;52.430;16.936;2023-05-21T10:37:26;3.88;;;2.42;;
53903;SDS011;39812;52.430;16.936;2023-05-21T10:39:53;3.95;;;2.38;;
53903;SDS011;39812;52.430;16.936;2023-05-21T10:48:01;5.20;;;2.47;;
53903;SDS011;39812;52.430;16.936;2023-05-21T10:56:38;5.03;;;2.83;;
53903;SDS011;39812;52.430;16.936;2023-05-21T10:59:10;6.30;;;2.47;;
53903;SDS011;39812;52.430;16.936;2023-05-21T11:02:00;6.63;;;2.40;;
53903;SDS011;39812;52.430;16.936;2023-05-21T11:04:27;7.55;;;2.92;;
53903;SDS011;39812;52.430;16.936;2023-05-21T11:06:53;4.30;;;2.22;;
53903;SDS011;39812;52.430;16.936;2023-05-21T11:09:22;7.07;;;2.30;;
53903;SDS011;39812;52.430;16.936;2023-05-21T11:11:51;4.22;;;2.25;;
53903;SDS011;39812;52.430;16.936;2023-05-21T11:16:55;3.50;;;2.45;;
53903;SDS011;39812;52.430;16.936;2023-05-21T11:19:25;4.38;;;2.58;;
53903;SDS011;39812;52.430;16.936;2023-05-21T11:22:20;4.00;;;2.17;;
53903;SDS011;39812;52.430;16.936;2023-05-21T11:24:47;4.68;;;2.00;;
53903;SDS011;39812;52.430;16.936;2023-05-21T11:27:29;2.83;;;2.10;;
53903;SDS011;39812;52.430;16.936;2023-05-21T11:32:31;7.80;;;2.70;;
53903;SDS011;39812;52.430;16.936;2023-05-21T11:34:58;5.38;;;2.40;;
53903;SDS011;39812;52.430;16.936;2023-05-21T11:37:26;3.63;;;2.28;;
53903;SDS011;39812;52.430;16.936;2023-05-21T11:39:54;4.05;;;2.50;;
53903;SDS011;39812;52.430;16.936;2023-05-21T11:42:30;4.45;;;2.25;;
53903;SDS011;39812;52.430;16.936;2023-05-21T11:44:58;4.32;;;2.00;;
53903;SDS011;39812;52.430;16.936;2023-05-21T11:47:24;4.63;;;2.20;;
53903;SDS011;39812;52.430;16.936;2023-05-21T11:49:52;5.10;;;1.95;;
53903;SDS011;39812;52.430;16.936;2023-05-21T11:52:18;4.38;;;2.20;;
53903;SDS011;39812;52.430;16.936;2023-05-21T11:54:45;6.15;;;2.50;;
53903;SDS011;39812;52.430;16.936;2023-05-21T11:57:15;5.50;;;2.25;;
53903;SDS011;39812;52.430;16.936;2023-05-21T11:59:45;4.18;;;2.15;;
53903;SDS011;39812;52.430;16.936;2023-05-21T12:02:14;3.95;;;2.22;;
53903;SDS011;39812;52.430;16.936;2023-05-21T12:04:45;2.50;;;1.88;;
53903;SDS011;39812;52.430;16.936;2023-05-21T12:07:13;3.70;;;2.00;;
53903;SDS011;39812;52.430;16.936;2023-05-21T12:09:46;6.38;;;2.22;;
53903;SDS011;39812;52.430;16.936;2023-05-21T12:12:17;3.45;;;2.20;;
53903;SDS011;39812;52.430;16.936;2023-05-21T12:14:45;5.20;;;2.10;;
53903;SDS011;39812;52.430;16.936;2023-05-21T12:17:14;3.58;;;2.00;;
53903;SDS011;39812;52.430;16.936;2023-05-21T12:19:41;4.05;;;2.40;;
53903;SDS011;39812;52.430;16.936;2023-05-21T12:22:07;5.50;;;2.13;;
53903;SDS011;39812;52.430;16.936;2023-05-21T12:24:34;4.38;;;2.13;;
53903;SDS011;39812;52.430;16.936;2023-05-21T12:27:01;4.10;;;2.20;;
53903;SDS011;39812;52.430;16.936;2023-05-21T12:29:33;1.90;;;1.70;;
53903;SDS011;39812;52.430;16.936;2023-05-21T12:32:03;4.68;;;3.13;;
53903;SDS011;39812;52.430;16.936;2023-05-21T12:34:45;3.05;;;2.08;;
53903;SDS011;39812;52.430;16.936;2023-05-21T12:39:46;3.03;;;2.10;;
53903;SDS011;39812;52.430;16.936;2023-05-21T12:42:13;4.57;;;2.20;;
53903;SDS011;39812;52.430;16.936;2023-05-21T12:44:42;5.22;;;2.15;;
53903;SDS011;39812;52.430;16.936;2023-05-21T12:47:10;2.67;;;1.90;;
53903;SDS011;39812;52.430;16.936;2023-05-21T12:49:40;4.85;;;2.13;;
53903;SDS011;39812;52.430;16.936;2023-05-21T12:52:08;2.90;;;2.30;;
53903;SDS011;39812;52.430;16.936;2023-05-21T12:54:36;4.20;;;2.03;;
53903;SDS011;39812;52.430;16.936;2023-05-21T12:57:09;5.50;;;2.08;;
53903;SDS011;39812;52.430;16.936;2023-05-21T12:59:43;2.90;;;2.03;;
53903;SDS011;39812;52.430;16.936;2023-05-21T13:02:12;4.47;;;2.10;;
53903;SDS011;39812;52.430;16.936;2023-05-21T13:04:43;3.72;;;2.25;;
53903;SDS011;39812;52.430;16.936;2023-05-21T13:07:08;5.35;;;2.33;;
53903;SDS011;39812;52.430;16.936;2023-05-21T13:09:34;4.40;;;2.28;;
53903;SDS011;39812;52.430;16.936;2023-05-21T13:12:00;5.68;;;2.28;;
53903;SDS011;39812;52.430;16.936;2023-05-21T13:14:25;6.60;;;2.47;;
53903;SDS011;39812;52.430;16.936;2023-05-21T13:16:51;2.95;;;2.03;;
53903;SDS011;39812;52.430;16.936;2023-05-21T13:19:17;2.90;;;2.00;;
53903;SDS011;39812;52.430;16.936;2023-05-21T13:21:42;3.95;;;2.08;;
53903;SDS011;39812;52.430;16.936;2023-05-21T13:24:08;5.53;;;2.25;;
53903;SDS011;39812;52.430;16.936;2023-05-21T13:26:34;7.07;;;2.15;;
53903;SDS011;39812;52.430;16.936;2023-05-21T13:28:59;4.00;;;1.80;;
53903;SDS011;39812;52.430;16.936;2023-05-21T13:31:25;3.17;;;2.15;;
53903;SDS011;39812;52.430;16.936;2023-05-21T13:33:50;3.10;;;1.90;;
53903;SDS011;39812;52.430;16.936;2023-05-21T13:36:16;2.25;;;1.52;;
53903;SDS011;39812;52.430;16.936;2023-05-21T13:38:42;6.20;;;2.00;;
53903;SDS011;39812;52.430;16.936;2023-05-21T13:41:07;3.53;;;1.73;;
53903;SDS011;39812;52.430;16.936;2023-05-21T13:43:33;4.45;;;1.80;;
53903;SDS011;39812;52.430;16.936;2023-05-21T13:45:58;4.97;;;2.05;;
53903;SDS011;39812;52.430;16.936;2023-05-21T13:48:24;3.80;;;1.77;;
53903;SDS011;39812;52.430;16.936;2023-05-21T13:50:50;2.60;;;1.90;;
53903;SDS011;39812;52.430;16.936;2023-05-21T13:53:15;3.58;;;1.88;;
53903;SDS011;39812;52.430;16.936;2023-05-21T13:55:41;3.35;;;1.98;;
53903;SDS011;39812;52.430;16.936;2023-05-21T13:58:06;6.75;;;1.67;;
53903;SDS011;39812;52.430;16.936;2023-05-21T14:00:32;3.17;;;1.73;;
53903;SDS011;39812;52.430;16.936;2023-05-21T14:02:58;4.50;;;1.90;;
53903;SDS011;39812;52.430;16.936;2023-05-21T14:05:24;3.97;;;2.05;;
53903;SDS011;39812;52.430;16.936;2023-05-21T14:07:49;3.72;;;2.22;;
53903;SDS011;39812;52.430;16.936;2023-05-21T14:10:15;5.45;;;1.80;;
53903;SDS011;39812;52.430;16.936;2023-05-21T14:12:41;3.90;;;1.80;;
53903;SDS011;39812;52.430;16.936;2023-05-21T14:15:06;6.45;;;2.13;;
53903;SDS011;39812;52.430;16.936;2023-05-21T14:17:32;5.28;;;2.10;;
53903;SDS011;39812;52.430;16.936;2023-05-21T14:19:58;3.92;;;2.13;;
53903;SDS011;39812;52.430;16.936;2023-05-21T14:22:24;4.25;;;2.53;;
53903;SDS011;39812;52.430;16.936;2023-05-21T14:24:50;3.60;;;1.90;;
53903;SDS011;39812;52.430;16.936;2023-05-21T14:27:16;4.47;;;1.83;;
53903;SDS011;39812;52.430;16.936;2023-05-21T14:29:42;5.88;;;1.95;;
53903;SDS011;39812;52.430;16.936;2023-05-21T14:32:07;2.67;;;2.00;;
53903;SDS011;39812;52.430;16.936;2023-05-21T14:34:33;5.40;;;2.03;;
53903;SDS011;39812;52.430;16.936;2023-05-21T14:36:58;6.03;;;2.10;;
53903;SDS011;39812;52.430;16.936;2023-05-21T14:39:24;3.90;;;2.05;;
53903;SDS011;39812;52.430;16.936;2023-05-21T14:41:50;4.13;;;1.98;;
53903;SDS011;39812;52.430;16.936;2023-05-21T14:44:15;4.28;;;1.98;;
53903;SDS011;39812;52.430;16.936;2023-05-21T14:46:41;5.10;;;1.90;;
53903;SDS011;39812;52.430;16.936;2023-05-21T14:49:07;3.22;;;1.95;;
53903;SDS011;39812;52.430;16.936;2023-05-21T14:51:32;5.50;;;1.80;;
53903;SDS011;39812;52.430;16.936;2023-05-21T14:53:58;4.55;;;2.42;;